Time;durP1;ratioP1;P1;durP2;ratioP2;P2;SDS_P1;SDS_P2;PMS_P1;PMS_P2;Temp;Humidity;BMP_temperature;BMP_pressure;BME280_temperature;BME280_humidity;BME280_pressure;Samples;Min_cycle;Max_cycle;Signal;HPM_P1;HPM_P2
2021/09/08 00:00:31;;;;;;;13.63;11.82;;;23.70;26.30;;;;;;5076977;28;20032;-65
2021/09/08 00:02:59;;;;;;;13.55;11.30;;;23.70;26.20;;;;;;5093164;28;20077;-64
2021/09/08 00:05:25;;;;;;;14.10;12.00;;;23.70;26.00;;;;;;5092427;28;20020;-64
2021/09/08 00:07:50;;;;;;;16.10;11.98;;;23.60;26.00;;;;;;5100419;28;20040;-64
2021/09/08 00:10:16;;;;;;;13.85;11.45;;;23.60;26.10;;;;;;5087599;28;20125;-63
2021/09/08 00:12:41;;;;;;;15.13;12.48;;;23.60;26.00;;;;;;5093096;28;20032;-64
2021/09/08 00:15:09;;;;;;;13.48;12.02;;;23.60;26.00;;;;;;5074155;28;20414;-64
2021/09/08 00:17:35;;;;;;;18.08;12.27;;;23.60;26.00;;;;;;5092574;28;20020;-63
2021/09/08 00:20:00;;;;;;;13.20;11.80;;;23.50;26.00;;;;;;5091348;28;20050;-63
2021/09/08 00:22:26;;;;;;;13.63;11.13;;;23.60;27.60;;;;;;5074097;28;20028;-63
2021/09/08 00:24:52;;;;;;;14.52;11.10;;;23.60;29.10;;;;;;5092271;28;20028;-63
2021/09/08 00:27:18;;;;;;;19.73;11.80;;;23.60;28.80;;;;;;5088117;28;20027;-63
2021/09/08 00:29:43;;;;;;;12.15;10.50;;;23.60;29.00;;;;;;5097055;28;20031;-63
2021/09/08 00:32:09;;;;;;;14.18;10.80;;;23.60;28.90;;;;;;5093236;28;20036;-63
2021/09/08 00:34:35;;;;;;;12.70;10.48;;;23.60;30.90;;;;;;5091911;28;20055;-63
2021/09/08 00:37:00;;;;;;;11.98;10.18;;;23.50;34.30;;;;;;5093319;28;20035;-63
2021/09/08 00:39:26;;;;;;;14.07;11.40;;;23.50;31.70;;;;;;5085745;28;20043;-63
2021/09/08 00:41:52;;;;;;;18.58;11.57;;;23.40;28.20;;;;;;5092560;28;20028;-63
2021/09/08 00:44:17;;;;;;;10.88;9.77;;;23.40;25.60;;;;;;5094973;28;20028;-63
2021/09/08 00:46:44;;;;;;;11.35;9.57;;;23.40;26.20;;;;;;5092821;28;20106;-63
2021/09/08 00:49:11;;;;;;;12.82;9.90;;;23.40;41.60;;;;;;5091911;28;20020;-63
2021/09/08 00:51:37;;;;;;;10.90;8.90;;;23.40;38.50;;;;;;5091211;28;20024;-63
2021/09/08 00:54:09;;;;;;;14.30;10.32;;;23.40;39.00;;;;;;5073527;28;20016;-63
2021/09/08 00:56:35;;;;;;;16.65;9.88;;;23.40;36.60;;;;;;5091339;28;20186;-63
2021/09/08 00:59:01;;;;;;;12.48;9.80;;;23.40;36.10;;;;;;5092789;28;20059;-63
2021/09/08 01:01:26;;;;;;;12.45;10.38;;;23.40;33.20;;;;;;5089751;28;20067;-63
2021/09/08 01:03:52;;;;;;;11.50;10.30;;;23.40;33.30;;;;;;5092367;28;20016;-63
2021/09/08 01:06:21;;;;;;;13.23;10.55;;;23.40;33.70;;;;;;5091443;28;20496;-63
2021/09/08 01:08:47;;;;;;;14.27;10.20;;;23.40;34.10;;;;;;5091117;28;20036;-64
2021/09/08 01:11:12;;;;;;;14.73;11.07;;;23.40;35.60;;;;;;5091371;28;20031;-63
2021/09/08 01:13:38;;;;;;;13.55;11.10;;;23.40;34.20;;;;;;5091672;28;20024;-63
2021/09/08 01:16:05;;;;;;;13.32;11.23;;;23.40;33.90;;;;;;5091911;28;20122;-63
2021/09/08 01:18:32;;;;;;;12.70;10.95;;;23.30;33.60;;;;;;5090511;28;20113;-63
2021/09/08 01:20:58;;;;;;;14.45;11.77;;;23.30;32.70;;;;;;5098068;28;20030;-64
2021/09/08 01:23:24;;;;;;;16.23;12.10;;;23.30;32.70;;;;;;5091530;28;20077;-63
2021/09/08 01:25:50;;;;;;;13.65;11.73;;;23.20;30.60;;;;;;5091373;28;20280;-63
2021/09/08 01:28:16;;;;;;;15.30;10.07;;;23.30;34.10;;;;;;5092681;28;20044;-63
2021/09/08 01:30:42;;;;;;;15.73;10.40;;;23.20;34.80;;;;;;5090687;28;20099;-63
2021/09/08 01:33:14;;;;;;;13.02;11.00;;;23.20;34.10;;;;;;5090325;28;20115;-63
2021/09/08 01:35:40;;;;;;;13.20;10.52;;;23.10;36.30;;;;;;5091055;28;20095;-63
2021/09/08 01:38:06;;;;;;;11.13;10.02;;;23.10;34.40;;;;;;5092233;28;20028;-63
2021/09/08 01:40:32;;;;;;;13.43;10.57;;;23.10;40.80;;;;;;5072493;28;20516;-63
2021/09/08 01:42:58;;;;;;;13.30;10.10;;;23.10;42.40;;;;;;5097014;28;20080;-63
2021/09/08 01:45:24;;;;;;;11.85;9.90;;;23.10;40.30;;;;;;5092706;28;20028;-63
2021/09/08 01:47:54;;;;;;;11.57;9.82;;;23.10;40.70;;;;;;5092441;28;20126;-63
2021/09/08 01:50:20;;;;;;;11.73;10.45;;;23.10;47.60;;;;;;5072722;28;20103;-64
2021/09/08 01:52:46;;;;;;;13.57;9.32;;;23.10;44.80;;;;;;5090481;28;20089;-63
2021/09/08 01:55:12;;;;;;;14.50;9.73;;;23.10;46.00;;;;;;5090582;28;20024;-63
2021/09/08 01:57:38;;;;;;;11.57;9.50;;;23.00;49.10;;;;;;5091225;28;20126;-64
2021/09/08 02:00:05;;;;;;;12.77;10.23;;;23.00;48.00;;;;;;5090130;28;20171;-64
2021/09/08 02:02:31;;;;;;;10.52;9.48;;;23.00;47.30;;;;;;5090896;28;20032;-64
2021/09/08 02:04:57;;;;;;;13.10;10.02;;;23.00;41.50;;;;;;5094554;28;20122;-63
2021/09/08 02:07:22;;;;;;;12.98;10.05;;;22.80;37.10;;;;;;5096123;28;20470;-63
2021/09/08 02:09:48;;;;;;;15.05;9.30;;;22.90;38.10;;;;;;5093944;28;20028;-63
2021/09/08 02:12:14;;;;;;;14.75;10.25;;;22.80;36.50;;;;;;5096045;28;20076;-63
2021/09/08 02:14:49;;;;;;;17.10;9.32;;;22.90;31.60;;;;;;5095273;28;20027;-63
2021/09/08 02:17:14;;;;;;;10.30;8.85;;;22.90;30.40;;;;;;5092809;28;20031;-64
2021/09/08 02:19:40;;;;;;;14.02;9.82;;;22.70;29.30;;;;;;5092888;28;20036;-63
2021/09/08 02:22:05;;;;;;;10.52;9.40;;;22.80;29.30;;;;;;5095191;28;20031;-63
2021/09/08 02:24:31;;;;;;;11.80;9.15;;;22.80;29.30;;;;;;5095246;28;20413;-63
2021/09/08 02:26:57;;;;;;;10.13;8.30;;;22.80;29.20;;;;;;5094790;28;20024;-63
2021/09/08 02:29:22;;;;;;;9.43;8.52;;;22.70;28.60;;;;;;5095386;28;20028;-63
2021/09/08 02:31:48;;;;;;;10.60;8.88;;;22.80;28.80;;;;;;5076305;28;20812;-63
2021/09/08 02:34:14;;;;;;;13.43;9.30;;;22.70;28.50;;;;;;5095671;28;20035;-63
2021/09/08 02:36:39;;;;;;;11.05;8.18;;;22.70;28.70;;;;;;5094153;28;20028;-63
2021/09/08 02:39:06;;;;;;;10.18;8.27;;;22.70;28.90;;;;;;5094780;28;20024;-63
2021/09/08 02:41:33;;;;;;;10.00;8.40;;;22.70;28.50;;;;;;5093473;28;20032;-63
2021/09/08 02:47:20;;;;;;;13.57;7.93;;;22.70;28.70;;;;;;5098568;28;20038;-64
2021/09/08 02:49:46;;;;;;;10.02;8.90;;;22.70;31.70;;;;;;5076025;28;20115;-63
2021/09/08 02:52:11;;;;;;;11.02;8.57;;;22.70;41.70;;;;;;5107774;28;20027;-63
2021/09/08 02:54:37;;;;;;;13.57;8.93;;;22.70;38.00;;;;;;5078668;28;20028;-63
2021/09/08 02:57:03;;;;;;;9.77;8.63;;;22.70;39.60;;;;;;5093854;28;20044;-63
2021/09/08 02:59:28;;;;;;;10.52;9.40;;;22.70;39.50;;;;;;5102733;28;20451;-63
2021/09/08 03:01:54;;;;;;;9.77;8.65;;;22.60;37.10;;;;;;5075405;28;20023;-63
2021/09/08 03:04:20;;;;;;;12.43;9.15;;;22.70;36.60;;;;;;5092912;28;20028;-63
2021/09/08 03:06:48;;;;;;;10.57;8.82;;;22.70;35.70;;;;;;5100880;28;20024;-64
2021/09/08 03:09:14;;;;;;;11.50;8.55;;;22.60;35.00;;;;;;5094650;28;20047;-64
2021/09/08 03:11:40;;;;;;;11.25;9.20;;;22.70;35.10;;;;;;5089421;28;20070;-63
2021/09/08 03:14:06;;;;;;;11.07;8.18;;;22.70;36.00;;;;;;5089887;28;20074;-63
2021/09/08 03:16:31;;;;;;;9.43;8.38;;;22.70;35.50;;;;;;5072892;28;20013;-63
2021/09/08 03:18:57;;;;;;;11.45;8.88;;;22.70;35.80;;;;;;5094628;28;20067;-63
2021/09/08 03:21:22;;;;;;;9.95;8.90;;;22.70;35.60;;;;;;5093252;28;20020;-63
2021/09/08 03:23:48;;;;;;;10.32;9.23;;;22.70;34.50;;;;;;5094249;28;20032;-63
2021/09/08 03:26:14;;;;;;;11.02;9.93;;;22.60;34.40;;;;;;5093381;28;20042;-63
2021/09/08 03:28:39;;;;;;;12.32;9.32;;;22.60;34.10;;;;;;5113062;28;20035;-63
2021/09/08 03:31:05;;;;;;;12.38;9.13;;;22.60;33.90;;;;;;5100122;28;20103;-63
2021/09/08 03:33:30;;;;;;;11.75;9.23;;;22.70;34.20;;;;;;5073774;28;20040;-63
2021/09/08 03:35:56;;;;;;;19.83;9.38;;;22.60;34.30;;;;;;5094333;28;20016;-63
2021/09/08 03:38:21;;;;;;;10.95;9.82;;;22.60;34.20;;;;;;5093424;28;20511;-63
2021/09/08 03:40:47;;;;;;;11.30;9.48;;;22.60;34.20;;;;;;5092441;28;20036;-63
2021/09/08 03:43:13;;;;;;;13.38;10.23;;;22.60;34.30;;;;;;5092016;28;20371;-63
2021/09/08 03:45:39;;;;;;;10.98;9.98;;;22.60;34.40;;;;;;5094446;28;20070;-63
2021/09/08 03:48:04;;;;;;;11.93;9.98;;;22.70;34.00;;;;;;5093791;28;20040;-63
2021/09/08 03:50:31;;;;;;;14.88;9.60;;;22.60;34.20;;;;;;5093072;28;20038;-63
2021/09/08 03:52:56;;;;;;;11.77;9.70;;;22.60;34.30;;;;;;5092546;28;20086;-63
2021/09/08 03:55:22;;;;;;;13.60;10.18;;;22.60;34.10;;;;;;5093783;28;20461;-63
2021/09/08 03:57:48;;;;;;;10.45;9.35;;;22.60;34.20;;;;;;5092228;28;20423;-63
2021/09/08 04:00:14;;;;;;;13.93;9.82;;;22.60;34.30;;;;;;5093468;28;20047;-63
2021/09/08 04:02:39;;;;;;;11.60;9.43;;;22.60;34.40;;;;;;5092713;28;20087;-63
2021/09/08 04:05:06;;;;;;;11.35;10.15;;;22.60;34.20;;;;;;5093104;28;20028;-63
2021/09/08 04:07:31;;;;;;;12.65;11.05;;;22.60;34.40;;;;;;5091991;28;20419;-63
2021/09/08 04:09:57;;;;;;;16.63;10.73;;;22.50;34.30;;;;;;5093166;28;20107;-63
2021/09/08 04:12:22;;;;;;;13.43;11.10;;;22.50;34.30;;;;;;5088663;28;20035;-63
2021/09/08 04:14:48;;;;;;;12.15;10.95;;;22.50;34.40;;;;;;5092526;28;20069;-63
2021/09/08 04:17:13;;;;;;;15.52;11.27;;;22.50;34.50;;;;;;5089135;28;20028;-63
2021/09/08 04:19:39;;;;;;;15.45;11.25;;;22.40;34.90;;;;;;5093094;28;20028;-63
2021/09/08 04:22:05;;;;;;;18.05;11.00;;;22.50;35.20;;;;;;5073840;28;20462;-63
2021/09/08 04:24:30;;;;;;;18.95;11.65;;;22.50;35.80;;;;;;5074632;28;20035;-63
2021/09/08 04:26:56;;;;;;;12.25;11.05;;;22.60;35.90;;;;;;5090727;28;20028;-63
2021/09/08 04:29:21;;;;;;;17.20;11.35;;;22.60;36.00;;;;;;5098172;28;20456;-63
2021/09/08 04:31:47;;;;;;;13.15;11.23;;;22.50;35.80;;;;;;5071885;28;20051;-63
2021/09/08 04:34:13;;;;;;;13.80;11.65;;;22.60;35.80;;;;;;5074499;28;20028;-63
2021/09/08 04:36:38;;;;;;;13.50;11.77;;;22.60;36.10;;;;;;5091616;28;20017;-63
2021/09/08 04:39:04;;;;;;;15.85;11.77;;;22.50;35.90;;;;;;5092710;28;20040;-63
2021/09/08 04:41:30;;;;;;;12.50;10.80;;;22.50;36.20;;;;;;5073403;28;20027;-64
2021/09/08 04:43:56;;;;;;;15.60;11.25;;;22.60;36.20;;;;;;5092831;28;20020;-63
2021/09/08 04:46:22;;;;;;;15.52;12.20;;;22.60;36.10;;;;;;5090436;28;20032;-63
2021/09/08 04:48:47;;;;;;;16.88;12.57;;;22.60;36.00;;;;;;5092326;28;20578;-63
2021/09/08 04:51:13;;;;;;;14.48;11.68;;;22.60;36.20;;;;;;5090940;28;20024;-63
2021/09/08 04:53:38;;;;;;;12.82;11.25;;;22.50;36.00;;;;;;5092280;28;20497;-63
2021/09/08 04:56:05;;;;;;;12.68;10.40;;;22.50;35.80;;;;;;5072669;28;20540;-63
2021/09/08 04:58:30;;;;;;;14.95;11.63;;;22.60;36.20;;;;;;5089670;28;20035;-63
2021/09/08 05:00:56;;;;;;;18.83;12.65;;;22.50;36.20;;;;;;5090505;28;20537;-63
2021/09/08 05:03:21;;;;;;;19.80;12.70;;;22.50;36.00;;;;;;5091319;28;20028;-63
2021/09/08 05:05:47;;;;;;;14.75;11.60;;;22.50;35.50;;;;;;5073793;28;20492;-63
2021/09/08 05:08:12;;;;;;;14.77;12.63;;;22.40;35.40;;;;;;5087999;28;20020;-63
2021/09/08 05:10:38;;;;;;;14.48;12.63;;;22.50;35.80;;;;;;5091850;28;20042;-63
2021/09/08 05:13:04;;;;;;;17.83;12.18;;;22.50;35.90;;;;;;5091208;28;20510;-63
2021/09/08 05:15:29;;;;;;;14.88;11.85;;;22.50;36.00;;;;;;5091319;28;20028;-63
2021/09/08 05:18:07;;;;;;;19.95;12.57;;;22.50;36.00;;;;;;5090381;28;20063;-63
2021/09/08 05:20:32;;;;;;;15.00;11.65;;;22.60;36.60;;;;;;5096873;28;20575;-63
2021/09/08 05:22:58;;;;;;;16.75;12.38;;;22.60;35.90;;;;;;5102797;28;20102;-64
2021/09/08 05:25:24;;;;;;;14.65;12.82;;;22.50;35.90;;;;;;5094722;28;20024;-63
2021/09/08 05:27:49;;;;;;;16.35;11.82;;;22.50;36.30;;;;;;5088662;28;20039;-63
2021/09/08 05:30:15;;;;;;;16.58;12.70;;;22.60;35.80;;;;;;5090947;28;20028;-63
2021/09/08 05:32:40;;;;;;;14.70;13.05;;;22.60;36.10;;;;;;5072299;28;20093;-63
2021/09/08 05:35:07;;;;;;;16.95;13.25;;;22.40;36.40;;;;;;5092111;28;20044;-63
2021/09/08 05:37:34;;;;;;;16.35;13.23;;;22.50;36.20;;;;;;5091001;28;20043;-64
2021/09/08 05:39:59;;;;;;;17.13;13.20;;;22.40;35.70;;;;;;5095012;28;20036;-64
2021/09/08 05:42:25;;;;;;;14.23;11.80;;;22.50;36.30;;;;;;5095227;28;20077;-64
2021/09/08 05:44:50;;;;;;;16.15;12.80;;;22.50;36.20;;;;;;5076510;28;20439;-64
2021/09/08 05:47:18;;;;;;;14.82;13.07;;;22.50;36.20;;;;;;5074858;28;20024;-63
2021/09/08 05:49:44;;;;;;;17.67;12.30;;;22.50;35.90;;;;;;5095017;28;20093;-64
2021/09/08 05:52:09;;;;;;;16.83;12.88;;;22.60;36.80;;;;;;5094752;28;20016;-64
2021/09/08 05:54:35;;;;;;;12.63;11.40;;;22.60;36.20;;;;;;5109969;28;20032;-64
2021/09/08 05:57:00;;;;;;;12.02;10.43;;;22.60;35.70;;;;;;5097630;28;20052;-64
2021/09/08 05:59:26;;;;;;;14.40;10.70;;;22.70;35.10;;;;;;5077359;28;20032;-63
2021/09/08 06:01:52;;;;;;;14.52;11.05;;;22.70;35.80;;;;;;5094707;28;20077;-64
2021/09/08 06:04:17;;;;;;;13.82;10.40;;;22.70;35.20;;;;;;5095578;28;20032;-64
2021/09/08 06:06:43;;;;;;;16.13;11.57;;;22.80;35.30;;;;;;5094406;28;20470;-64
2021/09/08 06:09:08;;;;;;;13.57;11.48;;;22.80;35.40;;;;;;5094944;28;20093;-63
2021/09/08 06:11:34;;;;;;;14.35;11.00;;;22.80;35.20;;;;;;5076203;28;20110;-64
2021/09/08 06:13:59;;;;;;;13.95;11.82;;;22.90;36.20;;;;;;5095231;28;20028;-64
2021/09/08 06:16:25;;;;;;;17.02;11.70;;;23.00;35.30;;;;;;5093136;28;20036;-64
2021/09/08 06:18:51;;;;;;;13.57;11.02;;;22.90;34.60;;;;;;5092550;28;20040;-63
2021/09/08 06:21:18;;;;;;;13.07;11.40;;;23.00;34.60;;;;;;5093780;28;20050;-63
2021/09/08 06:23:44;;;;;;;12.95;10.98;;;23.10;34.90;;;;;;5094201;28;20081;-63
2021/09/08 06:26:09;;;;;;;17.77;11.25;;;23.10;35.10;;;;;;5095508;28;20038;-63
2021/09/08 06:28:35;;;;;;;17.02;11.55;;;23.20;35.00;;;;;;5094611;28;20095;-63
2021/09/08 06:31:01;;;;;;;18.13;11.70;;;23.10;34.80;;;;;;5076104;28;20079;-64
2021/09/08 06:33:26;;;;;;;14.50;10.60;;;23.20;35.20;;;;;;5093673;28;20020;-64
2021/09/08 06:35:52;;;;;;;19.65;12.27;;;23.20;35.00;;;;;;5095226;28;20093;-63
2021/09/08 06:38:18;;;;;;;13.27;10.40;;;23.20;35.00;;;;;;5088866;28;20785;-55
2021/09/08 06:40:43;;;;;;;15.70;10.20;;;23.20;35.00;;;;;;5094371;28;20032;-55
2021/09/08 06:43:09;;;;;;;19.27;11.38;;;23.30;35.10;;;;;;5093923;28;20020;-63
2021/09/08 06:45:35;;;;;;;12.45;10.02;;;23.30;34.90;;;;;;5091567;28;20047;-64
2021/09/08 06:48:01;;;;;;;13.90;10.27;;;23.20;35.10;;;;;;5089245;28;20032;-64
2021/09/08 06:50:27;;;;;;;17.30;10.88;;;23.30;35.30;;;;;;5091758;28;20093;-65
2021/09/08 06:52:52;;;;;;;11.40;9.98;;;23.30;34.70;;;;;;5090702;28;20432;-64
2021/09/08 06:55:18;;;;;;;12.75;9.23;;;23.30;34.50;;;;;;5091455;28;20107;-64
2021/09/08 06:57:44;;;;;;;15.07;10.20;;;23.40;34.10;;;;;;5092371;28;20445;-64
2021/09/08 07:00:11;;;;;;;12.57;10.52;;;23.50;35.30;;;;;;5101559;28;20039;-64
2021/09/08 07:02:36;;;;;;;13.25;10.77;;;23.50;34.80;;;;;;5091862;28;20020;-64
2021/09/08 07:05:03;;;;;;;14.32;10.57;;;23.50;34.50;;;;;;5094905;28;20039;-65
2021/09/08 07:07:29;;;;;;;13.13;10.43;;;23.50;34.20;;;;;;5072883;28;20027;-65
2021/09/08 07:09:54;;;;;;;11.43;9.95;;;23.50;34.20;;;;;;5093644;28;20016;-64
2021/09/08 07:12:20;;;;;;;17.58;10.75;;;23.60;34.90;;;;;;5092750;28;20032;-64
2021/09/08 07:14:45;;;;;;;13.65;10.10;;;23.60;34.10;;;;;;5093590;28;20031;-65
2021/09/08 07:17:11;;;;;;;13.70;9.90;;;23.70;34.20;;;;;;5092965;28;20131;-64
2021/09/08 07:19:37;;;;;;;13.27;10.38;;;23.80;34.60;;;;;;5076330;28;20039;-65
2021/09/08 07:22:02;;;;;;;15.70;10.88;;;23.80;34.30;;;;;;5083958;28;20531;-65
2021/09/08 07:24:28;;;;;;;17.23;10.35;;;23.80;34.00;;;;;;5094265;28;20028;-64
2021/09/08 07:26:57;;;;;;;16.35;10.32;;;23.80;33.90;;;;;;5093563;28;20055;-64
2021/09/08 07:29:23;;;;;;;13.48;9.95;;;23.80;33.90;;;;;;5094530;28;20047;-65
2021/09/08 07:31:49;;;;;;;13.27;9.05;;;23.80;33.80;;;;;;5093318;28;20036;-64
2021/09/08 07:34:15;;;;;;;16.73;10.40;;;23.80;34.00;;;;;;5093535;28;20081;-64
2021/09/08 07:36:41;;;;;;;11.95;9.82;;;23.60;33.60;;;;;;5094204;28;20051;-64
2021/09/08 07:39:07;;;;;;;18.65;9.82;;;23.60;33.80;;;;;;5094626;28;20028;-65
2021/09/08 07:41:32;;;;;;;12.20;9.45;;;23.70;34.20;;;;;;5075388;28;20543;-65
2021/09/08 07:43:58;;;;;;;14.88;9.45;;;23.60;33.90;;;;;;5093037;28;20031;-65
2021/09/08 07:46:24;;;;;;;15.30;9.82;;;23.60;34.30;;;;;;5091149;28;20036;-65
2021/09/08 07:48:50;;;;;;;12.65;9.18;;;23.50;34.00;;;;;;5097404;28;20028;-65
2021/09/08 07:51:15;;;;;;;12.35;9.57;;;23.60;34.80;;;;;;5093902;28;20031;-66
2021/09/08 07:53:41;;;;;;;13.55;9.70;;;23.50;34.20;;;;;;5075220;28;20032;-65
2021/09/08 07:56:07;;;;;;;13.85;9.70;;;23.50;34.60;;;;;;5093514;28;20039;-65
2021/09/08 07:58:33;;;;;;;12.15;9.55;;;23.50;34.50;;;;;;5093067;28;20055;-66
2021/09/08 08:00:58;;;;;;;13.93;9.73;;;23.60;34.20;;;;;;5093410;28;20442;-65
2021/09/08 08:03:24;;;;;;;13.63;10.18;;;23.60;34.60;;;;;;5093041;28;20035;-65
2021/09/08 08:05:49;;;;;;;15.32;10.63;;;23.70;34.00;;;;;;5093837;28;20486;-65
2021/09/08 08:08:15;;;;;;;14.27;11.20;;;23.70;34.30;;;;;;5092949;28;20423;-65
2021/09/08 08:10:41;;;;;;;17.05;11.15;;;23.80;33.70;;;;;;5092874;28;20058;-65
2021/09/08 08:13:07;;;;;;;14.70;11.90;;;23.80;34.10;;;;;;5091489;28;20020;-65
2021/09/08 08:15:33;;;;;;;14.93;10.98;;;23.80;33.80;;;;;;5093750;28;20055;-65
2021/09/08 08:17:59;;;;;;;14.20;11.07;;;23.80;34.10;;;;;;5092746;28;20062;-65
2021/09/08 08:20:24;;;;;;;13.00;10.10;;;23.80;34.20;;;;;;5093028;28;20490;-66
2021/09/08 08:22:53;;;;;;;14.23;11.43;;;23.80;34.30;;;;;;5092767;28;20077;-66
2021/09/08 08:25:27;;;;;;;16.67;11.23;;;23.90;34.50;;;;;;5073360;28;20036;-65
2021/09/08 08:27:53;;;;;;;12.45;10.88;;;24.00;34.00;;;;;;5091914;28;20415;-66
2021/09/08 08:30:19;;;;;;;14.55;10.25;;;24.20;33.50;;;;;;5091848;28;20024;-66
2021/09/08 08:32:45;;;;;;;14.52;9.65;;;24.40;33.10;;;;;;5092279;28;20035;-65
2021/09/08 08:35:11;;;;;;;15.77;9.75;;;24.50;31.80;;;;;;5104334;28;20410;-65
2021/09/08 08:37:37;;;;;;;12.75;9.75;;;24.70;31.70;;;;;;5075242;28;20554;-65
2021/09/08 08:40:04;;;;;;;17.10;10.27;;;24.90;31.20;;;;;;5091805;28;20109;-66
2021/09/08 08:42:31;;;;;;;13.18;8.95;;;25.10;31.10;;;;;;5092265;28;20024;-66
2021/09/08 08:44:57;;;;;;;13.48;9.10;;;25.10;30.80;;;;;;5074357;28;20030;-66
2021/09/08 08:47:23;;;;;;;12.00;8.30;;;25.10;30.70;;;;;;5092798;28;20382;-66
2021/09/08 08:49:50;;;;;;;10.07;8.68;;;25.20;30.80;;;;;;5091843;28;20070;-66
2021/09/08 08:52:16;;;;;;;12.63;9.02;;;25.20;30.30;;;;;;5086325;28;20139;-65
2021/09/08 08:54:42;;;;;;;14.57;8.50;;;25.20;30.90;;;;;;5082917;28;20032;-66
2021/09/08 08:57:13;;;;;;;11.60;8.82;;;25.20;30.50;;;;;;5092047;28;20036;-66
2021/09/08 08:59:41;;;;;;;10.73;8.73;;;25.20;30.70;;;;;;5091924;28;20052;-66
2021/09/08 09:02:24;;;;;;;10.82;7.43;;;25.20;30.40;;;;;;5093204;28;20032;-66
2021/09/08 09:04:52;;;;;;;12.15;8.40;;;25.00;29.90;;;;;;5090899;28;20435;-66
2021/09/08 09:07:28;;;;;;;12.95;7.50;;;25.00;30.50;;;;;;5089155;28;20020;-66
2021/09/08 09:09:59;;;;;;;12.35;7.72;;;25.00;30.00;;;;;;5089108;28;20107;-66
2021/09/08 09:12:27;;;;;;;15.63;8.18;;;24.90;30.90;;;;;;5089238;28;20024;-66
2021/09/08 09:14:58;;;;;;;9.32;7.25;;;24.80;30.30;;;;;;5090703;28;20205;-66
2021/09/08 09:17:26;;;;;;;13.27;9.52;;;24.70;31.00;;;;;;5091948;28;20082;-66
2021/09/08 09:19:51;;;;;;;12.10;8.63;;;24.70;30.40;;;;;;5091522;28;20513;-66
2021/09/08 09:22:18;;;;;;;12.98;7.82;;;24.80;30.70;;;;;;5088007;28;20044;-66
2021/09/08 09:24:50;;;;;;;9.82;7.97;;;24.80;30.50;;;;;;5063544;28;20770;-66
2021/09/08 09:27:16;;;;;;;9.07;7.45;;;24.90;30.20;;;;;;5092443;28;20025;-66
2021/09/08 09:29:45;;;;;;;13.02;8.60;;;24.90;30.20;;;;;;5091353;28;20392;-66
2021/09/08 09:32:11;;;;;;;11.68;9.00;;;25.00;30.00;;;;;;5089932;28;20111;-66
2021/09/08 09:34:41;;;;;;;11.13;8.27;;;25.00;30.00;;;;;;5089532;28;20454;-66
2021/09/08 09:37:09;;;;;;;14.18;9.50;;;25.10;30.00;;;;;;5092005;28;20028;-66
2021/09/08 09:39:38;;;;;;;11.98;9.90;;;25.00;30.00;;;;;;5085928;28;20128;-66
2021/09/08 09:42:09;;;;;;;12.65;8.48;;;25.10;30.20;;;;;;5084466;28;20048;-66
2021/09/08 09:44:35;;;;;;;14.18;9.90;;;25.20;30.50;;;;;;5091374;28;20028;-66
2021/09/08 09:47:01;;;;;;;13.70;9.68;;;25.30;30.10;;;;;;5092579;28;20035;-66
2021/09/08 09:49:29;;;;;;;13.00;8.98;;;25.40;30.00;;;;;;5091158;28;20478;-66
2021/09/08 09:51:55;;;;;;;12.80;9.13;;;25.40;29.70;;;;;;5091982;28;20024;-66
2021/09/08 09:54:25;;;;;;;10.10;8.43;;;25.40;29.50;;;;;;5091139;28;20137;-66
2021/09/08 09:56:54;;;;;;;10.35;9.15;;;25.60;29.80;;;;;;5089367;28;20040;-66
2021/09/08 09:59:21;;;;;;;11.13;8.70;;;25.60;30.00;;;;;;5087178;28;20039;-66
2021/09/08 10:01:47;;;;;;;15.00;9.48;;;25.60;29.90;;;;;;5073836;28;20475;-66
2021/09/08 10:04:40;;;;;;;13.43;9.52;;;25.70;30.00;;;;;;5089074;28;20078;-66
2021/09/08 10:07:07;;;;;;;9.90;8.02;;;25.90;29.40;;;;;;5088521;28;20028;-66
2021/09/08 10:09:35;;;;;;;13.38;9.32;;;25.90;29.70;;;;;;5091165;28;20619;-66
2021/09/08 10:12:02;;;;;;;15.85;9.98;;;26.00;29.50;;;;;;5091946;28;20470;-66
2021/09/08 10:14:31;;;;;;;12.10;9.43;;;26.10;29.30;;;;;;5091415;28;20424;-66
2021/09/08 10:17:01;;;;;;;9.40;8.23;;;26.10;29.60;;;;;;5092382;28;20040;-66
2021/09/08 10:19:29;;;;;;;10.23;8.48;;;26.10;30.70;;;;;;5079969;28;20082;-66
2021/09/08 10:22:06;;;;;;;14.95;9.82;;;26.10;30.40;;;;;;5091977;28;20103;-66
2021/09/08 10:24:32;;;;;;;15.15;10.05;;;26.20;30.00;;;;;;5075429;28;20034;-66
2021/09/08 10:26:57;;;;;;;13.57;9.35;;;26.30;30.10;;;;;;5101383;28;20032;-66
2021/09/08 10:29:29;;;;;;;10.32;9.00;;;26.30;30.00;;;;;;5100434;28;20023;-66
2021/09/08 10:31:57;;;;;;;12.30;8.98;;;26.40;31.40;;;;;;5093786;28;20081;-66
2021/09/08 10:34:24;;;;;;;12.80;9.18;;;26.40;30.60;;;;;;5095157;28;20039;-66
2021/09/08 10:36:50;;;;;;;14.88;9.82;;;26.50;27.30;;;;;;5095417;28;20512;-66
2021/09/08 10:39:19;;;;;;;8.90;7.70;;;26.50;25.90;;;;;;5093871;28;20040;-66
2021/09/08 10:41:53;;;;;;;12.60;8.20;;;26.60;23.60;;;;;;5094970;28;20111;-66
2021/09/08 10:44:38;;;;;;;14.63;9.38;;;26.60;23.70;;;;;;5093054;28;20056;-66
2021/09/08 10:47:04;;;;;;;13.93;8.00;;;26.60;23.30;;;;;;5095661;28;20470;-66
2021/09/08 10:49:39;;;;;;;9.27;8.40;;;26.70;23.30;;;;;;5094477;28;20042;-66
2021/09/08 10:52:09;;;;;;;10.02;7.82;;;26.90;23.00;;;;;;5095273;28;20056;-66
2021/09/08 10:54:54;;;;;;;10.15;8.63;;;26.90;22.50;;;;;;5094305;28;20028;-66
2021/09/08 10:57:38;;;;;;;;;;;27.20;22.40;;;;;;5093976;28;20060;-66
2021/09/08 11:00:04;;;;;;;11.32;8.90;;;27.20;22.40;;;;;;5076087;28;19916;-66
2021/09/08 11:02:30;;;;;;;12.32;8.70;;;27.10;22.80;;;;;;5089907;28;20347;-66
2021/09/08 11:04:59;;;;;;;12.38;9.23;;;27.20;23.10;;;;;;5085990;28;20028;-66
2021/09/08 11:07:25;;;;;;;11.13;9.25;;;27.30;22.70;;;;;;5089781;28;20027;-67
2021/09/08 11:09:51;;;;;;;12.93;8.63;;;27.40;22.80;;;;;;5093300;28;20031;-66
2021/09/08 11:12:16;;;;;;;10.73;8.32;;;27.50;22.30;;;;;;5094892;28;20039;-66
2021/09/08 11:14:50;;;;;;;10.68;8.32;;;27.50;22.10;;;;;;5094544;28;20376;-66
2021/09/08 11:17:22;;;;;;;16.20;9.07;;;27.50;21.20;;;;;;5095096;28;20024;-67
2021/09/08 11:19:50;;;;;;;12.95;10.27;;;27.50;21.50;;;;;;5093966;28;20064;-67
2021/09/08 11:22:19;;;;;;;10.15;7.82;;;27.60;21.80;;;;;;5093964;28;20475;-67
2021/09/08 11:24:44;;;;;;;11.52;8.65;;;27.60;22.30;;;;;;5093782;28;20077;-66
2021/09/08 11:27:10;;;;;;;12.13;9.20;;;27.50;23.90;;;;;;5076493;28;20028;-66
2021/09/08 11:29:36;;;;;;;10.18;8.52;;;27.70;25.40;;;;;;5073140;28;20021;-66
2021/09/08 11:32:02;;;;;;;14.50;8.40;;;27.70;24.70;;;;;;5075673;28;20028;-66
2021/09/08 11:34:28;;;;;;;10.25;8.35;;;27.90;24.40;;;;;;5093638;28;20032;-66
2021/09/08 11:36:55;;;;;;;14.57;8.43;;;;;;;;;;5069785;28;20032;-66
2021/09/08 11:39:22;;;;;;;17.40;9.45;;;;;;;;;;5082665;28;20104;-66
2021/09/08 11:41:56;;;;;;;10.85;9.80;;;28.30;30.40;;;;;;5094606;28;20428;-66
2021/09/08 11:44:21;;;;;;;;;;;28.30;27.70;;;;;;5092970;28;20039;-66
2021/09/08 11:46:47;;;;;;;14.18;9.75;;;28.20;27.10;;;;;;5094714;28;19984;-66
2021/09/08 11:49:13;;;;;;;16.05;9.82;;;28.50;30.20;;;;;;5068705;28;20059;-66
2021/09/08 11:51:44;;;;;;;14.52;8.80;;;28.60;27.50;;;;;;5066975;28;20027;-67
2021/09/08 11:54:19;;;;;;;14.20;9.48;;;28.80;25.20;;;;;;5073723;28;20050;-66
2021/09/08 11:56:59;;;;;;;13.30;7.95;;;29.00;31.80;;;;;;5092300;28;20536;-66
2021/09/08 11:59:26;;;;;;;10.93;8.63;;;29.20;30.70;;;;;;5091586;28;20032;-66
2021/09/08 12:01:52;;;;;;;9.80;7.82;;;;;;;;;;5093158;28;20042;-66
2021/09/08 12:04:18;;;;;;;12.77;8.35;;;30.50;39.60;;;;;;5089032;28;20048;-66
2021/09/08 12:07:03;;;;;;;16.10;8.77;;;31.70;16.20;;;;;;5073326;28;20489;-67
2021/09/08 12:09:34;;;;;;;13.25;9.65;;;31.60;15.40;;;;;;5092473;28;20031;-66
2021/09/08 12:12:04;;;;;;;10.07;8.18;;;31.30;24.20;;;;;;5094130;28;20543;-67
2021/09/08 12:14:34;;;;;;;11.68;7.32;;;32.80;18.20;;;;;;5093318;28;20035;-66
2021/09/08 12:17:16;;;;;;;9.27;8.20;;;33.10;35.70;;;;;;5093754;28;20035;-67
2021/09/08 12:19:44;;;;;;;12.80;8.20;;;33.90;39.70;;;;;;5081135;28;20040;-67
2021/09/08 12:22:15;;;;;;;10.45;8.70;;;34.40;33.90;;;;;;5093500;28;20027;-65
2021/09/08 12:24:51;;;;;;;11.70;7.80;;;34.60;15.00;;;;;;5092358;28;20032;-65
2021/09/08 12:27:39;;;;;;;14.63;9.13;;;35.10;11.20;;;;;;5075533;28;20047;-65
2021/09/08 12:30:19;;;;;;;10.18;8.63;;;34.30;10.40;;;;;;5090622;28;20023;-65
2021/09/08 12:33:07;;;;;;;17.25;9.95;;;35.10;10.50;;;;;;5086080;28;20024;-65
2021/09/08 12:35:39;;;;;;;14.10;8.77;;;37.00;25.30;;;;;;5091401;28;20053;-65